메인 페이지
METAR-TAF:

METAR-TAF

공항 :

Coihaique, 칠레

위도: 45-35S, 경도: 072-07W, 고도: 310m

현재 날씨관측

예보는 48분 전, 16:00시(UTC)에 발표되었습니다.
8kt남남서풍과 북서풍을 오가는
온도 13°C
습도 51%
기압 1022 hPa
시정 10km 이상
고도 4000ft 상공 구름 조금
고도 10000ft 상공 구름 많음

METAR: SCCY 031600Z 26008KT 210V320 9999 FEW040 BKN100 13/03 Q1022 RMK AC LENT

시각: 13:48 (16:48 UTC)

예보

예보는 6 시간 32분 전, 10:16시(UTC)에 발표되었습니다.
예보 대상 시간: 03일 12시부터 03일 24시까지 (UTC)
5kt
시정 10km 이상
고도 3500ft 상공 구름 보통

TAF: SCCY 031016Z 0312/0324 27005KT 9999 SCT035 TN06/0312Z TX17/0319Z

4,000개 이상의 공항 관측 자료 및 예보 (METAR 및 TAF 보고).

지도상에서 검색 가능한 기상관측소가 노란 점과 빨간 점으로 표시되어 있습니다.

기상관측소 명을 보려면 표시 위로 마우스를 이동하세요.

날씨 관측과 예보를 보려면 클릭하세요.

지도 변경 : 확대하려면 엑스 표시가 있는 녹색 버튼, 축소하려면 빼기 표시가 있는 녹색 버튼, 다음 페이지의 지도를 보려면 녹색 화살표를 클릭하세요.


METAR-TAF: